Time;durP1;ratioP1;P1;durP2;ratioP2;P2;SDS_P1;SDS_P2;PMS_P1;PMS_P2;Temp;Humidity;BMP_temperature;BMP_pressure;BME280_temperature;BME280_humidity;BME280_pressure;Samples;Min_cycle;Max_cycle;Signal;HPM_P1;HPM_P2
2023/07/14 00:00:16;;;;;;;0.20;0.20;;;;;;;;;;5072034;28;20058;-73
2023/07/14 00:02:43;;;;;;;1.20;1.10;;;;;;;;;;5072130;28;20028;-74
2023/07/14 00:05:14;;;;;;;0.15;0.15;;;;;;;;;;5053799;28;20028;-74
2023/07/14 00:07:40;;;;;;;0.60;0.30;;;;;;;;;;5071639;28;20033;-74
2023/07/14 00:10:31;;;;;;;0.10;0.10;;;;;;;;;;5071869;28;20028;-73
2023/07/14 00:13:02;;;;;;;0.20;0.20;;;;;;;;;;5071577;28;20029;-74
2023/07/14 00:15:28;;;;;;;0.28;0.28;;;;;;;;;;5088710;28;20032;-75
2023/07/14 00:17:55;;;;;;;0.20;0.20;;;;;;;;;;5076188;28;20370;-74
2023/07/14 00:20:22;;;;;;;0.20;0.20;;;;;;;;;;5094931;28;20036;-74
2023/07/14 00:22:49;;;;;;;0.20;0.20;;;;;;;;;;5092243;28;20035;-74
2023/07/14 00:25:15;;;;;;;0.20;0.20;;;;;;;;;;5089669;28;20039;-75
2023/07/14 00:27:41;;;;;;;0.20;0.20;;;;;;;;;;5076889;28;20040;-76
2023/07/14 00:30:19;;;;;;;0.20;0.20;;;;;;;;;;5091022;28;20470;-67
2023/07/14 00:32:46;;;;;;;;;;;;;;;;;;5075540;28;20118;-73
2023/07/14 00:35:17;;;;;;;0.28;0.28;;;;;;;;;;5093872;28;19955;-74
2023/07/14 00:37:43;;;;;;;0.20;0.20;;;;;;;;;;5094872;28;20054;-72
2023/07/14 00:40:12;;;;;;;0.20;0.20;;;;;;;;;;5095207;28;20024;-73
2023/07/14 00:42:39;;;;;;;0.20;0.20;;;;;;;;;;5076625;28;20028;-74
2023/07/14 00:45:08;;;;;;;0.20;0.20;;;;;;;;;;5075733;28;20028;-73
2023/07/14 00:47:34;;;;;;;0.20;0.20;;;;;;;;;;5094872;28;20047;-73
2023/07/14 00:50:01;;;;;;;0.20;0.20;;;;;;;;;;5094906;28;20471;-72
2023/07/14 00:52:26;;;;;;;0.20;0.20;;;;;;;;;;5058298;28;20104;-71
2023/07/14 00:54:52;;;;;;;0.90;0.82;;;;;;;;;;5094480;28;20078;-72
2023/07/14 00:57:18;;;;;;;0.28;0.28;;;;;;;;;;5094639;28;20088;-72
2023/07/14 00:59:44;;;;;;;0.22;0.22;;;;;;;;;;5067536;28;20173;-72
2023/07/14 01:02:23;;;;;;;0.20;0.20;;;;;;;;;;5083916;28;20060;-72
2023/07/14 01:04:58;;;;;;;0.20;0.20;;;;;;;;;;5074649;28;20059;-72
2023/07/14 01:07:29;;;;;;;0.20;0.20;;;;;;;;;;5075199;28;20123;-72
2023/07/14 01:09:56;;;;;;;0.20;0.20;;;;;;;;;;5074742;28;20043;-71
2023/07/14 01:12:23;;;;;;;0.20;0.20;;;;;;;;;;5076154;28;20468;-71
2023/07/14 01:14:50;;;;;;;0.20;0.20;;;;;;;;;;5086367;28;20082;-72
2023/07/14 01:17:16;;;;;;;0.20;0.20;;;;;;;;;;5074432;28;20036;-72
2023/07/14 01:19:43;;;;;;;0.30;0.30;;;;;;;;;;5093860;28;20383;-70
2023/07/14 01:22:35;;;;;;;0.30;0.30;;;;;;;;;;5094332;28;20364;-72
2023/07/14 01:25:08;;;;;;;0.20;0.20;;;;;;;;;;5042749;28;20080;-72
2023/07/14 01:27:34;;;;;;;0.20;0.20;;;;;;;;;;5055891;28;20028;-70
2023/07/14 01:29:59;;;;;;;0.10;0.10;;;;;;;;;;5073375;28;20111;-71
2023/07/14 01:32:31;;;;;;;0.20;0.20;;;;;;;;;;5056148;28;20032;-72
2023/07/14 01:34:56;;;;;;;0.20;0.20;;;;;;;;;;5073672;28;20034;-72
2023/07/14 01:37:22;;;;;;;0.10;0.10;;;;;;;;;;5073862;28;20107;-72
2023/07/14 01:39:50;;;;;;;0.20;0.20;;;;;;;;;;5060142;28;20024;-72
2023/07/14 01:42:16;;;;;;;0.20;0.20;;;;;;;;;;5094236;28;20413;-72
2023/07/14 01:44:42;;;;;;;0.20;0.20;;;;;;;;;;5093985;28;20551;-72
2023/07/14 01:47:09;;;;;;;0.20;0.20;;;;;;;;;;5093972;28;20067;-72
2023/07/14 01:49:37;;;;;;;0.20;0.20;;;;;;;;;;5094784;28;20059;-72
2023/07/14 01:52:04;;;;;;;0.20;0.20;;;;;;;;;;5095502;28;20085;-72
2023/07/14 01:54:35;;;;;;;0.20;0.20;;;;;;;;;;5094483;28;20368;-72
2023/07/14 01:57:03;;;;;;;0.20;0.20;;;;;;;;;;5075796;28;20494;-72
2023/07/14 01:59:36;;;;;;;0.20;0.20;;;;;;;;;;5075745;28;20040;-72
2023/07/14 02:02:03;;;;;;;0.20;0.20;;;;;;;;;;5074852;28;20044;-71
2023/07/14 02:04:31;;;;;;;0.20;0.20;;;;;;;;;;5093683;28;20039;-72
2023/07/14 02:06:57;;;;;;;0.20;0.20;;;;;;;;;;5093643;28;20032;-72
2023/07/14 02:09:23;;;;;;;0.28;0.28;;;;;;;;;;5075344;28;20036;-72
2023/07/14 02:11:52;;;;;;;0.20;0.20;;;;;;;;;;5093634;28;20040;-72
2023/07/14 02:14:18;;;;;;;0.20;0.20;;;;;;;;;;5093469;28;20039;-72
2023/07/14 02:16:45;;;;;;;0.20;0.20;;;;;;;;;;5092210;28;20036;-73
2023/07/14 02:19:31;;;;;;;0.20;0.20;;;;;;;;;;5073011;28;20547;-72
2023/07/14 02:21:58;;;;;;;0.20;0.20;;;;;;;;;;5041979;28;20649;-72
2023/07/14 02:24:25;;;;;;;0.20;0.20;;;;;;;;;;5069439;28;20043;-72
2023/07/14 02:26:53;;;;;;;0.20;0.20;;;;;;;;;;5092415;28;20028;-72
2023/07/14 02:29:19;;;;;;;0.15;0.15;;;;;;;;;;5093152;28;20114;-73
2023/07/14 02:31:47;;;;;;;0.10;0.10;;;;;;;;;;5093272;28;20462;-72
2023/07/14 02:34:14;;;;;;;0.30;0.30;;;;;;;;;;5075065;28;20491;-72
2023/07/14 02:36:58;;;;;;;0.20;0.20;;;;;;;;;;5075054;28;20061;-72
2023/07/14 02:39:25;;;;;;;12.85;3.88;;;;;;;;;;5092703;28;20364;-72
2023/07/14 02:41:53;;;;;;;0.20;0.20;;;;;;;;;;5092821;28;20035;-72
2023/07/14 02:44:19;;;;;;;0.20;0.20;;;;;;;;;;5093102;28;20420;-72
2023/07/14 02:46:50;;;;;;;0.13;0.13;;;;;;;;;;5074203;28;20074;-72
2023/07/14 02:49:16;;;;;;;0.20;0.20;;;;;;;;;;5073830;28;20036;-72
2023/07/14 02:51:41;;;;;;;0.10;0.10;;;;;;;;;;5092712;28;20047;-72
2023/07/14 02:54:07;;;;;;;0.20;0.20;;;;;;;;;;5091293;28;20099;-72
2023/07/14 02:56:33;;;;;;;0.10;0.10;;;;;;;;;;5092527;28;20057;-73
2023/07/14 02:58:59;;;;;;;0.20;0.20;;;;;;;;;;5074792;28;20040;-71
2023/07/14 03:01:25;;;;;;;0.20;0.20;;;;;;;;;;5073666;28;20028;-71
2023/07/14 03:03:51;;;;;;;0.20;0.20;;;;;;;;;;5086592;28;20055;-71
2023/07/14 03:06:18;;;;;;;0.20;0.20;;;;;;;;;;5086213;28;20467;-71
2023/07/14 03:08:44;;;;;;;0.20;0.20;;;;;;;;;;5087365;28;20047;-71
2023/07/14 03:11:10;;;;;;;0.20;0.20;;;;;;;;;;5070029;28;20032;-73
2023/07/14 03:13:35;;;;;;;0.20;0.20;;;;;;;;;;5050830;28;20036;-72
2023/07/14 03:16:01;;;;;;;0.20;0.20;;;;;;;;;;5068662;28;20134;-73
2023/07/14 03:18:26;;;;;;;0.20;0.20;;;;;;;;;;5070273;28;20029;-73
2023/07/14 03:20:59;;;;;;;0.22;0.22;;;;;;;;;;5068231;28;20473;-73
2023/07/14 03:23:25;;;;;;;0.20;0.20;;;;;;;;;;5068450;28;20028;-73
2023/07/14 03:26:09;;;;;;;0.20;0.20;;;;;;;;;;5062695;28;20119;-72
2023/07/14 03:28:36;;;;;;;0.20;0.20;;;;;;;;;;5069743;28;20044;-71
2023/07/14 03:31:02;;;;;;;0.20;0.20;;;;;;;;;;5071882;28;20066;-71
2023/07/14 03:33:28;;;;;;;0.20;0.20;;;;;;;;;;5070217;28;20023;-71
2023/07/14 03:35:54;;;;;;;0.28;0.28;;;;;;;;;;5070201;28;20068;-73
2023/07/14 03:38:19;;;;;;;0.20;0.20;;;;;;;;;;5087886;28;20115;-74
2023/07/14 03:40:45;;;;;;;0.20;0.20;;;;;;;;;;5088258;28;20032;-72
2023/07/14 03:43:10;;;;;;;0.20;0.20;;;;;;;;;;5088140;28;20038;-72
2023/07/14 03:45:36;;;;;;;0.17;0.17;;;;;;;;;;5088577;28;20460;-74
2023/07/14 03:48:03;;;;;;;0.20;0.20;;;;;;;;;;5086824;28;20028;-72
2023/07/14 03:50:29;;;;;;;0.20;0.20;;;;;;;;;;5088816;28;20036;-74
2023/07/14 03:52:54;;;;;;;0.10;0.10;;;;;;;;;;5090866;28;20852;-74
2023/07/14 03:55:20;;;;;;;0.20;0.20;;;;;;;;;;5091678;28;20475;-73
2023/07/14 03:57:45;;;;;;;0.30;0.30;;;;;;;;;;5091302;28;20331;-76
2023/07/14 04:00:14;;;;;;;0.20;0.20;;;;;;;;;;5090334;28;20150;-73
2023/07/14 04:02:48;;;;;;;0.20;0.20;;;;;;;;;;5081502;28;20032;-73
2023/07/14 04:05:14;;;;;;;0.20;0.20;;;;;;;;;;5073549;28;20391;-74
2023/07/14 04:07:41;;;;;;;0.20;0.20;;;;;;;;;;5091154;28;20139;-73
2023/07/14 04:10:08;;;;;;;0.10;0.10;;;;;;;;;;5091429;28;20020;-73
2023/07/14 04:12:35;;;;;;;0.20;0.20;;;;;;;;;;5089601;28;20036;-74
2023/07/14 04:15:00;;;;;;;0.20;0.20;;;;;;;;;;5089567;28;20081;-72
2023/07/14 04:17:26;;;;;;;0.20;0.20;;;;;;;;;;5089849;28;20396;-73
2023/07/14 04:19:52;;;;;;;0.40;0.40;;;;;;;;;;5091351;28;20067;-73
2023/07/14 04:22:18;;;;;;;0.63;0.63;;;;;;;;;;5091214;28;20064;-73
2023/07/14 04:24:44;;;;;;;0.20;0.20;;;;;;;;;;5090066;28;20386;-72
2023/07/14 04:27:09;;;;;;;0.20;0.20;;;;;;;;;;5091213;28;20032;-73
2023/07/14 04:29:35;;;;;;;0.90;0.90;;;;;;;;;;5091210;28;20475;-73
2023/07/14 04:32:00;;;;;;;0.20;0.20;;;;;;;;;;5071632;28;20032;-73
2023/07/14 04:34:26;;;;;;;0.43;0.43;;;;;;;;;;5090164;28;20150;-74
2023/07/14 04:36:51;;;;;;;0.20;0.20;;;;;;;;;;5094950;28;20024;-73
2023/07/14 04:39:17;;;;;;;0.20;0.20;;;;;;;;;;5057845;28;20091;-74
2023/07/14 04:41:44;;;;;;;0.20;0.20;;;;;;;;;;5073501;28;20581;-75
2023/07/14 04:44:13;;;;;;;0.30;0.30;;;;;;;;;;5083653;28;20492;-75
2023/07/14 04:46:39;;;;;;;0.20;0.20;;;;;;;;;;5087659;28;20043;-76
2023/07/14 04:49:05;;;;;;;0.20;0.20;;;;;;;;;;5090317;28;20028;-75
2023/07/14 04:51:31;;;;;;;0.20;0.20;;;;;;;;;;5087976;28;20060;-75
2023/07/14 04:53:56;;;;;;;1.25;0.88;;;;;;;;;;5090659;28;20372;-73
2023/07/14 04:56:22;;;;;;;0.40;0.40;;;;;;;;;;5090741;28;20035;-73
2023/07/14 04:58:47;;;;;;;0.20;0.20;;;;;;;;;;5083992;28;20036;-72
2023/07/14 05:01:13;;;;;;;0.20;0.20;;;;;;;;;;5088576;28;20059;-72
2023/07/14 05:03:38;;;;;;;0.20;0.20;;;;;;;;;;5086637;28;20028;-72
2023/07/14 05:06:04;;;;;;;0.20;0.20;;;;;;;;;;5087289;28;20033;-73
2023/07/14 05:08:29;;;;;;;0.20;0.20;;;;;;;;;;5088387;28;20071;-73
2023/07/14 05:10:55;;;;;;;0.20;0.20;;;;;;;;;;5087448;28;20024;-72
2023/07/14 05:13:20;;;;;;;0.20;0.20;;;;;;;;;;5089380;28;20089;-72
2023/07/14 05:15:45;;;;;;;0.30;0.30;;;;;;;;;;5087666;28;20514;-72
2023/07/14 05:18:11;;;;;;;0.22;0.22;;;;;;;;;;5086866;28;20947;-72
2023/07/14 05:20:36;;;;;;;0.20;0.20;;;;;;;;;;5090257;28;20043;-72
2023/07/14 05:23:03;;;;;;;0.20;0.20;;;;;;;;;;5090280;28;20042;-73
2023/07/14 05:25:28;;;;;;;0.20;0.20;;;;;;;;;;5090290;28;20028;-73
2023/07/14 05:27:54;;;;;;;2.67;1.33;;;;;;;;;;5090228;28;20020;-73
2023/07/14 05:30:22;;;;;;;0.20;0.20;;;;;;;;;;5090272;28;20024;-73
2023/07/14 05:32:49;;;;;;;0.30;0.30;;;;;;;;;;5070346;28;20109;-71
2023/07/14 05:35:15;;;;;;;0.30;0.30;;;;;;;;;;5085275;28;20039;-78
2023/07/14 05:37:41;;;;;;;0.28;0.28;;;;;;;;;;5086587;28;20377;-73
2023/07/14 05:40:08;;;;;;;0.20;0.20;;;;;;;;;;5089018;28;20031;-73
2023/07/14 05:42:33;;;;;;;0.22;0.22;;;;;;;;;;5085616;28;20038;-73
2023/07/14 05:44:59;;;;;;;0.40;0.40;;;;;;;;;;5089690;28;20043;-73
2023/07/14 05:47:24;;;;;;;0.30;0.30;;;;;;;;;;5090625;28;20119;-72
2023/07/14 05:49:51;;;;;;;0.30;0.30;;;;;;;;;;5069932;28;20048;-72
2023/07/14 05:52:16;;;;;;;2.05;1.85;;;;;;;;;;5070585;28;20506;-72
2023/07/14 05:54:42;;;;;;;0.20;0.20;;;;;;;;;;5087923;28;20385;-73
2023/07/14 05:57:08;;;;;;;0.20;0.20;;;;;;;;;;5087735;28;20251;-73
2023/07/14 05:59:33;;;;;;;0.85;0.85;;;;;;;;;;5088161;28;20393;-73
2023/07/14 06:01:59;;;;;;;0.20;0.20;;;;;;;;;;5087545;28;20032;-73
2023/07/14 06:04:24;;;;;;;0.30;0.30;;;;;;;;;;5069381;28;20032;-74
2023/07/14 06:06:50;;;;;;;0.20;0.20;;;;;;;;;;5087594;28;20030;-73
2023/07/14 06:09:16;;;;;;;0.38;0.38;;;;;;;;;;5088557;28;20038;-72
2023/07/14 06:11:42;;;;;;;0.40;0.40;;;;;;;;;;5087846;28;20427;-72
2023/07/14 06:14:08;;;;;;;0.38;0.38;;;;;;;;;;5088695;28;20032;-75
2023/07/14 06:16:34;;;;;;;0.30;0.30;;;;;;;;;;5088778;28;20059;-72
2023/07/14 06:18:59;;;;;;;0.30;0.30;;;;;;;;;;5087945;28;20063;-73
2023/07/14 06:21:25;;;;;;;1.25;1.17;;;;;;;;;;5087397;28;20048;-73
2023/07/14 06:23:50;;;;;;;0.30;0.30;;;;;;;;;;5087845;28;20036;-73
2023/07/14 06:26:15;;;;;;;0.20;0.20;;;;;;;;;;5087125;28;20094;-72
2023/07/14 06:28:42;;;;;;;0.30;0.30;;;;;;;;;;5087520;28;20039;-75
2023/07/14 06:31:11;;;;;;;0.30;0.30;;;;;;;;;;5087427;28;20052;-72
2023/07/14 06:33:37;;;;;;;0.40;0.40;;;;;;;;;;5087632;28;20052;-72
2023/07/14 06:36:03;;;;;;;0.40;0.40;;;;;;;;;;5088757;28;20074;-73
2023/07/14 06:38:29;;;;;;;2.65;1.65;;;;;;;;;;5071096;28;20074;-73
2023/07/14 06:40:58;;;;;;;8.90;8.10;;;;;;;;;;5089257;28;20808;-72
2023/07/14 06:43:24;;;;;;;0.30;0.30;;;;;;;;;;5088890;28;20505;-72
2023/07/14 06:45:50;;;;;;;8.07;2.05;;;;;;;;;;5089436;28;20387;-72
2023/07/14 06:48:15;;;;;;;0.40;0.40;;;;;;;;;;5053928;28;20459;-73
2023/07/14 06:50:41;;;;;;;0.93;0.93;;;;;;;;;;5088811;28;20479;-74
2023/07/14 06:53:07;;;;;;;0.30;0.30;;;;;;;;;;5089171;28;20459;-72
2023/07/14 06:55:32;;;;;;;0.25;0.25;;;;;;;;;;5088997;28;20036;-73
2023/07/14 06:57:58;;;;;;;0.30;0.30;;;;;;;;;;5088896;28;20040;-73
2023/07/14 07:00:24;;;;;;;0.30;0.30;;;;;;;;;;5089009;28;20114;-73
2023/07/14 07:02:49;;;;;;;2.45;2.25;;;;;;;;;;5088793;28;20027;-73
2023/07/14 07:05:15;;;;;;;4.15;1.23;;;;;;;;;;5088645;28;20028;-72
2023/07/14 07:07:40;;;;;;;0.50;0.50;;;;;;;;;;5070213;28;20036;-75
2023/07/14 07:10:07;;;;;;;0.30;0.30;;;;;;;;;;5088999;28;20027;-72
2023/07/14 07:12:32;;;;;;;0.50;0.50;;;;;;;;;;5088458;28;20066;-73
2023/07/14 07:14:58;;;;;;;0.57;0.57;;;;;;;;;;5087830;28;20025;-73
2023/07/14 07:17:23;;;;;;;0.40;0.40;;;;;;;;;;5090487;28;20502;-73
2023/07/14 07:19:49;;;;;;;0.30;0.30;;;;;;;;;;5081190;28;20038;-73
2023/07/14 07:22:14;;;;;;;1.20;0.60;;;;;;;;;;5072057;28;20032;-74
2023/07/14 07:24:40;;;;;;;0.63;0.63;;;;;;;;;;5076711;28;20028;-74
2023/07/14 07:27:06;;;;;;;0.40;0.40;;;;;;;;;;5077839;28;20054;-73
2023/07/14 07:29:31;;;;;;;0.50;0.50;;;;;;;;;;5082341;28;20089;-73
2023/07/14 07:31:57;;;;;;;0.30;0.30;;;;;;;;;;5090103;28;20028;-72
2023/07/14 07:34:22;;;;;;;0.55;0.55;;;;;;;;;;5089674;28;20032;-72
2023/07/14 07:36:48;;;;;;;0.40;0.40;;;;;;;;;;5089617;28;20032;-72
2023/07/14 07:39:14;;;;;;;0.35;0.35;;;;;;;;;;5089826;28;20028;-73
2023/07/14 07:41:40;;;;;;;1.80;1.15;;;;;;;;;;5088742;28;20036;-72
2023/07/14 07:44:08;;;;;;;4.10;1.05;;;;;;;;;;5090987;28;20040;-72
2023/07/14 07:46:34;;;;;;;0.90;0.67;;;;;;;;;;5090100;28;20058;-72
2023/07/14 07:49:00;;;;;;;0.30;0.30;;;;;;;;;;5089746;28;20381;-72
2023/07/14 07:51:25;;;;;;;0.50;0.50;;;;;;;;;;5089779;28;20118;-73
2023/07/14 07:53:51;;;;;;;1.85;1.05;;;;;;;;;;5089830;28;20031;-74
2023/07/14 07:56:17;;;;;;;0.73;0.60;;;;;;;;;;5071006;28;20027;-72
2023/07/14 07:58:43;;;;;;;2.58;2.38;;;;;;;;;;5084998;28;20032;-72
2023/07/14 08:01:09;;;;;;;0.38;0.38;;;;;;;;;;5079551;28;20066;-71
2023/07/14 08:03:35;;;;;;;0.30;0.30;;;;;;;;;;5077930;28;20028;-73
2023/07/14 08:06:01;;;;;;;1.55;0.70;;;;;;;;;;5077006;28;20036;-74
2023/07/14 08:08:28;;;;;;;0.40;0.40;;;;;;;;;;5062965;28;20043;-72
2023/07/14 08:10:53;;;;;;;0.60;0.60;;;;;;;;;;5079116;28;20028;-72
2023/07/14 08:13:19;;;;;;;5.93;1.00;;;;;;;;;;5091548;28;20028;-73
2023/07/14 08:15:44;;;;;;;0.32;0.32;;;;;;;;;;5092141;28;20031;-72
2023/07/14 08:18:10;;;;;;;0.68;0.63;;;;;;;;;;5102509;28;20039;-72
2023/07/14 08:20:37;;;;;;;0.40;0.40;;;;;;;;;;5053143;28;20032;-72
2023/07/14 08:23:06;;;;;;;0.40;0.40;;;;;;;;;;5052947;28;20101;-73
2023/07/14 08:25:31;;;;;;;;;;;;;;;;;;5069838;28;20155;-72
2023/07/14 08:27:57;;;;;;;0.35;0.35;;;;;;;;;;5067196;28;20014;-73
2023/07/14 08:30:22;;;;;;;0.50;0.50;;;;;;;;;;5076376;28;20028;-72
2023/07/14 08:32:49;;;;;;;0.70;0.70;;;;;;;;;;5098203;28;20036;-73
2023/07/14 08:35:18;;;;;;;0.40;0.40;;;;;;;;;;5054415;28;20032;-72
2023/07/14 08:37:44;;;;;;;0.30;0.30;;;;;;;;;;5068742;28;20036;-72
2023/07/14 08:40:12;;;;;;;0.73;0.60;;;;;;;;;;5087405;28;20051;-73
2023/07/14 08:42:58;;;;;;;0.30;0.30;;;;;;;;;;5084401;28;20039;-74
2023/07/14 08:45:24;;;;;;;0.40;0.40;;;;;;;;;;5087406;28;20036;-73
2023/07/14 08:47:58;;;;;;;0.52;0.52;;;;;;;;;;5085968;28;20150;-74
2023/07/14 08:50:25;;;;;;;0.43;0.43;;;;;;;;;;5091177;28;20051;-75
2023/07/14 08:52:52;;;;;;;0.32;0.32;;;;;;;;;;5085785;28;20094;-72
2023/07/14 08:55:20;;;;;;;0.40;0.40;;;;;;;;;;5087630;28;20032;-75
2023/07/14 08:57:45;;;;;;;0.40;0.40;;;;;;;;;;5087977;28;20028;-73
2023/07/14 09:00:17;;;;;;;1.05;1.02;;;;;;;;;;5087979;28;20080;-73
2023/07/14 09:02:50;;;;;;;0.40;0.40;;;;;;;;;;5088014;28;20565;-73
2023/07/14 09:05:19;;;;;;;2.15;2.05;;;;;;;;;;5087946;28;20047;-73
2023/07/14 09:07:45;;;;;;;0.50;0.47;;;;;;;;;;5066979;28;20352;-73
2023/07/14 09:10:12;;;;;;;0.60;0.50;;;;;;;;;;5067341;28;20033;-79
2023/07/14 09:13:00;;;;;;;2.13;1.17;;;;;;;;;;5067288;28;20468;-73
2023/07/14 09:15:26;;;;;;;1.00;0.53;;;;;;;;;;5076093;28;20483;-73
2023/07/14 09:17:51;;;;;;;2.10;1.15;;;;;;;;;;5073227;28;20273;-76
2023/07/14 09:20:29;;;;;;;0.50;0.50;;;;;;;;;;5079659;28;20031;-75
2023/07/14 09:23:13;;;;;;;0.68;0.68;;;;;;;;;;5066396;28;20050;-75
2023/07/14 09:25:42;;;;;;;0.40;0.40;;;;;;;;;;5073836;28;20499;-73
2023/07/14 09:28:07;;;;;;;;;;;;;;;;;;5083273;28;20085;-72
2023/07/14 09:30:33;;;;;;;0.30;0.30;;;;;;;;;;5047134;28;20391;-73
2023/07/14 09:33:02;;;;;;;1.08;0.82;;;;;;;;;;5071858;28;20025;-75
2023/07/14 09:35:28;;;;;;;0.90;0.90;;;;;;;;;;5081640;28;20031;-73
2023/07/14 09:38:14;;;;;;;0.40;0.40;;;;;;;;;;5099679;28;20057;-73
2023/07/14 09:40:41;;;;;;;0.50;0.50;;;;;;;;;;5088765;28;20037;-73
2023/07/14 09:43:07;;;;;;;1.25;1.15;;;;;;;;;;5077172;28;20039;-72
2023/07/14 09:45:36;;;;;;;0.38;0.38;;;;;;;;;;5066980;28;20388;-72
2023/07/14 09:48:02;;;;;;;0.43;0.43;;;;;;;;;;5075936;28;20036;-70
2023/07/14 09:50:29;;;;;;;0.77;0.55;;;;;;;;;;5085395;28;20046;-70
2023/07/14 09:52:55;;;;;;;0.50;0.50;;;;;;;;;;5086433;28;20581;-75
2023/07/14 09:55:22;;;;;;;2.17;1.08;;;;;;;;;;5055101;28;20039;-72
2023/07/14 09:57:51;;;;;;;1.67;1.02;;;;;;;;;;5082508;28;20055;-73
2023/07/14 10:00:16;;;;;;;;;;;;;;;;;;5067302;28;20028;-72
2023/07/14 10:02:41;;;;;;;1.50;1.10;;;;;;;;;;5048394;28;19916;-72
2023/07/14 10:05:22;;;;;;;1.65;1.02;;;;;;;;;;5067203;28;20308;-69
2023/07/14 10:07:48;;;;;;;1.65;0.95;;;;;;;;;;5069654;28;20086;-72
2023/07/14 10:10:19;;;;;;;6.68;4.93;;;;;;;;;;5076546;28;20476;-71
2023/07/14 10:12:46;;;;;;;0.43;0.43;;;;;;;;;;5087342;28;20036;-76
2023/07/14 10:15:22;;;;;;;2.30;1.17;;;;;;;;;;5067989;28;20090;-75
2023/07/14 10:17:51;;;;;;;0.60;0.60;;;;;;;;;;5086903;28;20356;-77
2023/07/14 10:20:18;;;;;;;1.00;0.90;;;;;;;;;;5087241;28;20058;-77
2023/07/14 10:22:43;;;;;;;5.93;2.08;;;;;;;;;;5069849;28;20544;-73
2023/07/14 10:25:15;;;;;;;0.32;0.32;;;;;;;;;;5080774;28;20039;-69
2023/07/14 10:27:48;;;;;;;1.38;1.15;;;;;;;;;;5066960;28;20040;-73
2023/07/14 10:30:13;;;;;;;1.17;1.00;;;;;;;;;;5066359;28;20040;-73
2023/07/14 10:32:46;;;;;;;6.13;1.95;;;;;;;;;;5059452;28;20013;-76
2023/07/14 10:35:28;;;;;;;2.85;1.05;;;;;;;;;;5086985;28;20071;-79
2023/07/14 10:37:58;;;;;;;1.05;0.70;;;;;;;;;;5087183;28;20036;-71
2023/07/14 10:40:26;;;;;;;4.18;2.35;;;;;;;;;;5086805;28;20040;-67
2023/07/14 10:43:10;;;;;;;7.13;3.53;;;;;;;;;;5086530;28;20601;-65
2023/07/14 10:45:38;;;;;;;10.65;2.95;;;;;;;;;;5086896;28;20043;-64
2023/07/14 10:48:04;;;;;;;6.15;2.15;;;;;;;;;;5084584;28;20039;-64
2023/07/14 10:50:35;;;;;;;0.57;0.57;;;;;;;;;;5086574;28;20035;-68
2023/07/14 10:53:24;;;;;;;1.92;1.45;;;;;;;;;;5086992;28;20027;-67
2023/07/14 10:55:50;;;;;;;4.63;1.50;;;;;;;;;;5086074;28;20085;-66
2023/07/14 10:58:19;;;;;;;4.13;0.98;;;;;;;;;;5068793;28;20453;-67
2023/07/14 11:00:45;;;;;;;1.20;1.02;;;;;;;;;;5081929;28;20040;-75
2023/07/14 11:03:15;;;;;;;8.50;3.42;;;;;;;;;;5039988;28;20150;-73
2023/07/14 11:05:44;;;;;;;3.22;1.67;;;;;;;;;;5085042;28;20066;-79
2023/07/14 11:08:10;;;;;;;4.18;1.63;;;;;;;;;;5068503;28;20054;-78
2023/07/14 11:10:42;;;;;;;6.80;2.28;;;;;;;;;;5076895;28;20052;-80
2023/07/14 11:13:18;;;;;;;6.63;2.28;;;;;;;;;;5072179;28;20036;-82
2023/07/14 11:15:46;;;;;;;3.28;1.48;;;;;;;;;;5067287;28;20036;-81
2023/07/14 11:18:12;;;;;;;0.50;0.50;;;;;;;;;;5086167;28;20352;-80
2023/07/14 11:20:40;;;;;;;0.85;0.68;;;;;;;;;;5086130;28;20050;-81
2023/07/14 11:23:05;;;;;;;7.10;1.90;;;;;;;;;;5085072;28;20059;-78
2023/07/14 11:25:40;;;;;;;2.63;1.48;;;;;;;;;;5073951;28;20125;-74
2023/07/14 11:28:29;;;;;;;0.60;0.57;;;;;;;;;;5074606;28;20032;-77
2023/07/14 11:30:55;;;;;;;;;;;;;;;;;;5050191;28;20040;-79
2023/07/14 11:33:25;;;;;;;4.28;1.45;;;;;;;;;;5077509;28;19923;-78
2023/07/14 11:36:00;;;;;;;1.75;1.25;;;;;;;;;;5084736;28;20033;-77
2023/07/14 11:38:31;;;;;;;3.05;1.30;;;;;;;;;;5076098;28;20074;-76
2023/07/14 11:40:57;;;;;;;0.93;0.82;;;;;;;;;;5084637;28;20048;-77
2023/07/14 11:43:25;;;;;;;3.20;2.28;;;;;;;;;;5085353;28;20042;-75
2023/07/14 11:46:13;;;;;;;1.50;1.40;;;;;;;;;;5076732;28;20071;-73
2023/07/14 11:48:43;;;;;;;3.67;2.10;;;;;;;;;;5064879;28;20040;-74
2023/07/14 11:51:19;;;;;;;1.38;0.90;;;;;;;;;;5081995;28;20020;-82
2023/07/14 11:54:04;;;;;;;0.50;0.50;;;;;;;;;;5074401;28;20032;-78
2023/07/14 11:56:43;;;;;;;3.60;1.65;;;;;;;;;;5071864;28;20032;-80
2023/07/14 11:59:22;;;;;;;11.68;3.80;;;;;;;;;;5058654;28;20039;-77
2023/07/14 12:01:49;;;;;;;3.85;1.88;;;;;;;;;;5084635;28;20051;-77
2023/07/14 12:04:25;;;;;;;5.50;2.00;;;;;;;;;;5086856;28;20034;-80
2023/07/14 12:07:09;;;;;;;1.00;0.88;;;;;;;;;;5088222;28;20395;-77
2023/07/14 12:09:54;;;;;;;4.32;2.03;;;;;;;;;;5086163;28;20562;-77
2023/07/14 12:12:19;;;;;;;0.73;0.68;;;;;;;;;;5086517;28;20044;-78
2023/07/14 12:14:48;;;;;;;2.83;1.27;;;;;;;;;;5090605;28;20035;-77
2023/07/14 12:17:46;;;;;;;6.47;1.17;;;;;;;;;;5090774;28;20027;-77
2023/07/14 12:20:11;;;;;;;5.18;1.95;;;;;;;;;;5056925;28;20050;-81
2023/07/14 12:22:38;;;;;;;2.88;2.08;;;;;;;;;;5090556;28;20036;-77
2023/07/14 12:25:10;;;;;;;4.05;1.52;;;;;;;;;;5090518;28;20031;-79
2023/07/14 12:27:36;;;;;;;3.65;1.48;;;;;;;;;;5088683;28;20055;-79
2023/07/14 12:30:09;;;;;;;0.52;0.43;;;;;;;;;;5088576;28;20028;-78
2023/07/14 12:32:35;;;;;;;4.07;1.52;;;;;;;;;;5088237;28;20481;-78
2023/07/14 12:35:00;;;;;;;0.30;0.30;;;;;;;;;;5089218;28;20198;-77
2023/07/14 12:37:31;;;;;;;6.18;2.88;;;;;;;;;;5088870;28;20111;-78
2023/07/14 12:39:57;;;;;;;10.73;2.85;;;;;;;;;;5088481;28;20036;-80
2023/07/14 12:42:23;;;;;;;4.97;2.60;;;;;;;;;;5090010;28;20078;-78
2023/07/14 12:44:51;;;;;;;10.32;2.42;;;;;;;;;;5090162;28;20407;-77
2023/07/14 12:47:18;;;;;;;12.90;3.78;;;;;;;;;;5089927;28;20028;-81
2023/07/14 12:49:47;;;;;;;1.70;1.38;;;;;;;;;;5090431;28;20139;-77
2023/07/14 12:52:15;;;;;;;0.30;0.30;;;;;;;;;;5090556;28;20559;-78
2023/07/14 12:54:42;;;;;;;2.07;1.13;;;;;;;;;;5071574;28;20539;-78
2023/07/14 12:57:09;;;;;;;3.72;1.75;;;;;;;;;;5090007;28;20064;-77
2023/07/14 12:59:34;;;;;;;3.97;1.17;;;;;;;;;;5089892;28;20440;-77
2023/07/14 13:02:00;;;;;;;7.57;2.50;;;;;;;;;;5072040;28;20071;-76
2023/07/14 13:04:26;;;;;;;2.42;1.90;;;;;;;;;;5089445;28;20028;-78
2023/07/14 13:07:12;;;;;;;8.63;2.42;;;;;;;;;;5089481;28;20040;-77
2023/07/14 13:09:37;;;;;;;1.98;1.40;;;;;;;;;;5089079;28;20044;-75
2023/07/14 13:12:03;;;;;;;0.68;0.68;;;;;;;;;;5089003;28;20067;-76
2023/07/14 13:14:31;;;;;;;2.17;1.48;;;;;;;;;;5089355;28;20024;-76
2023/07/14 13:16:58;;;;;;;1.10;1.00;;;;;;;;;;5089156;28;20036;-79
2023/07/14 13:19:35;;;;;;;0.50;0.50;;;;;;;;;;5089248;28;20100;-76
2023/07/14 13:22:02;;;;;;;3.58;2.70;;;;;;;;;;5089254;28;20185;-77
2023/07/14 13:24:29;;;;;;;0.30;0.30;;;;;;;;;;5088077;28;20069;-76
2023/07/14 13:26:56;;;;;;;3.50;1.17;;;;;;;;;;5089051;28;20032;-77
2023/07/14 13:29:31;;;;;;;4.60;2.03;;;;;;;;;;5089036;28;20036;-77
2023/07/14 13:31:59;;;;;;;0.50;0.50;;;;;;;;;;5089140;28;20036;-77
2023/07/14 13:34:30;;;;;;;3.28;1.70;;;;;;;;;;5088712;28;20133;-76
2023/07/14 13:36:56;;;;;;;3.60;0.60;;;;;;;;;;5089018;28;20547;-76
2023/07/14 13:39:33;;;;;;;0.45;0.45;;;;;;;;;;5089702;28;20044;-77
2023/07/14 13:42:00;;;;;;;0.40;0.40;;;;;;;;;;5071323;28;20399;-76
2023/07/14 13:44:38;;;;;;;1.30;1.05;;;;;;;;;;5088353;28;20116;-77
2023/07/14 13:47:10;;;;;;;3.05;2.03;;;;;;;;;;5089044;28;20048;-76
2023/07/14 13:49:36;;;;;;;5.30;1.70;;;;;;;;;;5088946;28;20119;-76
2023/07/14 13:52:01;;;;;;;1.75;1.20;;;;;;;;;;5088790;28;20123;-76
2023/07/14 13:54:38;;;;;;;5.20;1.67;;;;;;;;;;5070204;28;20471;-78
2023/07/14 13:57:03;;;;;;;1.58;0.60;;;;;;;;;;5095377;28;20118;-75
2023/07/14 13:59:29;;;;;;;1.05;0.95;;;;;;;;;;5089950;28;20120;-81
2023/07/14 14:01:54;;;;;;;4.70;1.73;;;;;;;;;;5089028;28;20562;-79
2023/07/14 14:04:19;;;;;;;15.18;3.72;;;;;;;;;;5083646;28;20032;-76
2023/07/14 14:06:45;;;;;;;4.57;2.45;;;;;;;;;;5084075;28;20036;-75
2023/07/14 14:09:17;;;;;;;0.75;0.75;;;;;;;;;;5088517;28;20048;-75
2023/07/14 14:11:42;;;;;;;5.97;1.23;;;;;;;;;;5087593;28;20043;-74
2023/07/14 14:14:09;;;;;;;10.55;2.78;;;;;;;;;;5068526;28;20035;-74
2023/07/14 14:16:34;;;;;;;10.52;1.65;;;;;;;;;;5068546;28;20043;-75
2023/07/14 14:19:00;;;;;;;0.80;0.80;;;;;;;;;;5088413;28;20028;-81
2023/07/14 14:21:25;;;;;;;2.13;1.70;;;;;;;;;;5087868;28;20105;-77
2023/07/14 14:23:51;;;;;;;0.32;0.32;;;;;;;;;;5087590;28;20061;-77
2023/07/14 14:26:16;;;;;;;2.10;1.42;;;;;;;;;;5076952;28;20028;-77
2023/07/14 14:28:41;;;;;;;2.60;2.40;;;;;;;;;;5084571;28;20035;-76
2023/07/14 14:31:09;;;;;;;2.35;1.73;;;;;;;;;;5083485;28;20032;-78
2023/07/14 14:33:34;;;;;;;5.75;2.65;;;;;;;;;;5088108;28;20047;-77
2023/07/14 14:36:00;;;;;;;0.70;0.68;;;;;;;;;;5087189;28;20471;-74
2023/07/14 14:38:29;;;;;;;1.17;1.08;;;;;;;;;;5088276;28;20505;-78
2023/07/14 14:40:54;;;;;;;;;;;;;;;;;;5088633;28;20068;-79
2023/07/14 14:43:24;;;;;;;1.38;0.75;;;;;;;;;;5087524;28;20075;-84
2023/07/14 14:45:50;;;;;;;0.43;0.43;;;;;;;;;;5085638;28;20094;-79
2023/07/14 14:48:17;;;;;;;1.40;1.13;;;;;;;;;;5090866;28;20036;-72
2023/07/14 14:50:44;;;;;;;6.95;3.45;;;;;;;;;;5088683;28;20241;-75